Terminal Aerodrome Forecast
Issued by NWS

Home | Current Version | Previous Version | Text Only | Print | Product List | Glossary On
Versions: 1 2 3 4 5 6 7 8 9 10 11 12 13 14 15 16
000
FTUS45 KRIW 260530
TAFCPR
TAF
KCPR 260530Z 2606/2706 VRB06KT 5SM -SHRA BR SCT030 OVC050
      TEMPO 2606/2608 2SM TSRA BR OVC030CB
     FM260800 VRB06KT P6SM VCSH SCT030 BKN050
     FM261000 22006KT P6SM VCFG FEW010 SCT100
     FM261500 25008KT P6SM SCT100
     FM262100 VRB10G15KT P6SM VCTS SCT070CB BKN150
     FM270400 VRB06KT P6SM SCT100=

USA.gov is the U.S. government's official web portal to all federal, state and local government web resources and services.